Time;durP1;ratioP1;P1;durP2;ratioP2;P2;SDS_P1;SDS_P2;PMS_P1;PMS_P2;Temp;Humidity;BMP_temperature;BMP_pressure;BME280_temperature;BME280_humidity;BME280_pressure;Samples;Min_cycle;Max_cycle;Signal;HPM_P1;HPM_P2
2022/03/28 00:00:56;;;;;;;8.27;5.43;;;;;;;;;;5051735;28;20392;-61
2022/03/28 00:03:22;;;;;;;10.70;6.25;;;;;;;;;;5051688;28;20045;-61
2022/03/28 00:05:48;;;;;;;13.05;6.45;;;;;;;;;;5031940;28;20044;-61
2022/03/28 00:08:14;;;;;;;11.73;8.25;;;;;;;;;;5051391;28;20123;-61
2022/03/28 00:10:40;;;;;;;13.07;8.10;;;;;;;;;;5069448;28;20098;-61
2022/03/28 00:13:06;;;;;;;12.75;8.35;;;;;;;;;;5050624;28;20091;-62
2022/03/28 00:15:33;;;;;;;12.02;8.60;;;;;;;;;;5051056;28;20047;-61
2022/03/28 00:17:59;;;;;;;21.80;8.30;;;;;;;;;;5066425;28;20047;-61
2022/03/28 00:20:25;;;;;;;14.32;8.85;;;;;;;;;;5050046;28;20396;-61
2022/03/28 00:22:51;;;;;;;14.77;8.88;;;;;;;;;;5050462;28;20074;-61
2022/03/28 00:25:17;;;;;;;14.75;8.70;;;;;;;;;;5048473;28;20063;-62
2022/03/28 00:27:43;;;;;;;16.75;8.73;;;;;;;;;;5032279;28;20127;-61
2022/03/28 00:30:10;;;;;;;14.00;9.30;;;;;;;;;;5032253;28;20056;-61
2022/03/28 00:32:36;;;;;;;14.73;9.30;;;;;;;;;;5028954;28;20412;-62
2022/03/28 00:35:03;;;;;;;17.23;9.05;;;;;;;;;;5048301;28;20503;-61
2022/03/28 00:37:29;;;;;;;13.20;8.68;;;;;;;;;;5054849;28;20417;-61
2022/03/28 00:39:55;;;;;;;11.98;9.50;;;;;;;;;;5049779;28;20037;-61
2022/03/28 00:42:21;;;;;;;11.60;8.57;;;;;;;;;;5051073;28;20044;-61
2022/03/28 00:44:47;;;;;;;12.70;8.63;;;;;;;;;;5051179;28;20056;-61
2022/03/28 00:47:14;;;;;;;14.90;8.70;;;;;;;;;;5050843;28;20037;-61
2022/03/28 00:49:40;;;;;;;20.13;8.35;;;;;;;;;;5051671;28;20385;-61
2022/03/28 00:52:07;;;;;;;11.85;8.70;;;;;;;;;;5033560;28;20357;-61
2022/03/28 00:54:33;;;;;;;15.75;8.30;;;;;;;;;;5048130;28;20468;-61
2022/03/28 00:56:59;;;;;;;14.57;8.45;;;;;;;;;;5047738;28;20486;-61
2022/03/28 00:59:25;;;;;;;12.73;8.13;;;;;;;;;;5050870;28;20090;-61
2022/03/28 01:01:51;;;;;;;11.90;7.55;;;;;;;;;;5047679;28;20045;-61
2022/03/28 01:04:18;;;;;;;12.68;8.15;;;;;;;;;;5054760;28;20120;-61
2022/03/28 01:06:44;;;;;;;12.05;7.88;;;;;;;;;;5053257;28;20045;-61
2022/03/28 01:09:10;;;;;;;11.98;6.97;;;;;;;;;;5049400;28;20051;-61
2022/03/28 01:11:36;;;;;;;14.02;7.47;;;;;;;;;;5065307;28;20041;-61
2022/03/28 01:14:02;;;;;;;12.40;6.47;;;;;;;;;;5049648;28;20115;-61
2022/03/28 01:16:29;;;;;;;10.82;6.55;;;;;;;;;;5047478;28;20072;-62
2022/03/28 01:18:55;;;;;;;14.85;6.70;;;;;;;;;;5049174;28;20110;-61
2022/03/28 01:21:21;;;;;;;15.15;6.30;;;;;;;;;;5048856;28;20132;-62
2022/03/28 01:23:48;;;;;;;7.90;5.78;;;;;;;;;;5048362;28;20049;-61
2022/03/28 01:26:15;;;;;;;9.38;5.82;;;;;;;;;;5049510;28;20033;-61
2022/03/28 01:28:41;;;;;;;9.75;5.32;;;;;;;;;;5071083;28;20112;-61
2022/03/28 01:31:08;;;;;;;8.18;5.10;;;;;;;;;;5050533;28;20045;-61
2022/03/28 01:33:35;;;;;;;8.43;5.03;;;;;;;;;;5048705;28;20052;-61
2022/03/28 01:36:01;;;;;;;9.95;5.13;;;;;;;;;;5046130;28;20460;-61
2022/03/28 01:38:27;;;;;;;10.65;5.40;;;;;;;;;;5063288;28;20492;-62
2022/03/28 01:40:54;;;;;;;9.60;5.20;;;;;;;;;;5044453;28;20404;-61
2022/03/28 01:43:21;;;;;;;8.85;5.28;;;;;;;;;;5024482;28;20118;-61
2022/03/28 01:45:47;;;;;;;8.98;5.13;;;;;;;;;;5044175;28;20175;-61
2022/03/28 01:48:13;;;;;;;13.13;6.30;;;;;;;;;;5048413;28;20088;-61
2022/03/28 01:50:40;;;;;;;7.25;5.18;;;;;;;;;;5047292;28;20036;-61
2022/03/28 01:53:06;;;;;;;12.32;5.90;;;;;;;;;;5049122;28;20400;-61
2022/03/28 01:55:33;;;;;;;9.18;5.63;;;;;;;;;;5048339;28;20044;-61
2022/03/28 01:57:59;;;;;;;15.95;5.63;;;;;;;;;;5048405;28;20041;-61
2022/03/28 02:00:28;;;;;;;9.82;5.90;;;;;;;;;;5049753;28;20517;-62
2022/03/28 02:02:55;;;;;;;11.52;5.82;;;;;;;;;;5045426;28;20052;-61
2022/03/28 02:05:21;;;;;;;9.07;5.30;;;;;;;;;;5071810;28;20053;-61
2022/03/28 02:07:49;;;;;;;8.77;5.00;;;;;;;;;;5048227;28;20053;-61
2022/03/28 02:10:16;;;;;;;7.35;4.55;;;;;;;;;;5049513;28;20045;-61
2022/03/28 02:12:43;;;;;;;8.38;4.68;;;;;;;;;;5049494;28;20067;-61
2022/03/28 02:15:10;;;;;;;9.68;4.78;;;;;;;;;;5065734;28;20045;-61
2022/03/28 02:17:36;;;;;;;11.35;6.72;;;;;;;;;;5048889;28;20045;-61
2022/03/28 02:20:05;;;;;;;11.35;4.80;;;;;;;;;;5048682;28;20040;-61
2022/03/28 02:22:32;;;;;;;7.28;4.60;;;;;;;;;;5049004;28;20044;-61
2022/03/28 02:24:58;;;;;;;9.80;5.13;;;;;;;;;;5048739;28;20057;-61
2022/03/28 02:27:24;;;;;;;10.35;4.85;;;;;;;;;;5049258;28;20082;-61
2022/03/28 02:29:51;;;;;;;9.38;4.93;;;;;;;;;;5049076;28;20037;-61
2022/03/28 02:32:17;;;;;;;8.65;4.63;;;;;;;;;;5052351;28;20063;-61
2022/03/28 02:34:43;;;;;;;6.50;4.32;;;;;;;;;;5049671;28;20049;-61
2022/03/28 02:37:09;;;;;;;6.47;4.32;;;;;;;;;;5030342;28;20041;-61
2022/03/28 02:39:35;;;;;;;7.35;4.70;;;;;;;;;;5064062;28;20045;-61
2022/03/28 02:42:02;;;;;;;9.90;4.60;;;;;;;;;;5048567;28;20080;-61
2022/03/28 02:44:28;;;;;;;10.25;4.78;;;;;;;;;;5031112;28;20083;-61
2022/03/28 02:46:54;;;;;;;6.53;4.47;;;;;;;;;;5048552;28;20060;-62
2022/03/28 02:49:20;;;;;;;7.32;4.95;;;;;;;;;;5033472;28;20090;-61
2022/03/28 02:51:46;;;;;;;12.23;5.53;;;;;;;;;;5060622;28;20465;-61
2022/03/28 02:54:13;;;;;;;16.38;5.53;;;;;;;;;;5048553;28;20048;-62
2022/03/28 02:56:39;;;;;;;11.50;5.70;;;;;;;;;;5048104;28;20115;-61
2022/03/28 02:59:05;;;;;;;10.88;5.65;;;;;;;;;;5049582;28;20392;-61
2022/03/28 03:01:32;;;;;;;11.77;5.43;;;;;;;;;;5049436;28;20457;-61
2022/03/28 03:03:58;;;;;;;15.57;5.60;;;;;;;;;;5053214;28;20052;-61
2022/03/28 03:06:24;;;;;;;7.97;4.85;;;;;;;;;;5053557;28;20095;-61
2022/03/28 03:08:50;;;;;;;20.08;5.15;;;;;;;;;;5051695;28;20037;-62
2022/03/28 03:11:17;;;;;;;10.23;4.78;;;;;;;;;;5067732;28;20132;-61
2022/03/28 03:13:43;;;;;;;12.18;5.90;;;;;;;;;;5035240;28;20056;-61
2022/03/28 03:16:09;;;;;;;10.82;5.43;;;;;;;;;;5052397;28;20044;-61
2022/03/28 03:18:35;;;;;;;12.10;5.75;;;;;;;;;;5052745;28;20040;-61
2022/03/28 03:21:02;;;;;;;16.13;6.10;;;;;;;;;;5067056;28;20037;-61
2022/03/28 03:23:28;;;;;;;15.93;6.38;;;;;;;;;;5067671;28;20044;-61
2022/03/28 03:25:55;;;;;;;13.73;6.00;;;;;;;;;;5052345;28;20099;-61
2022/03/28 03:28:21;;;;;;;11.27;5.82;;;;;;;;;;5034178;28;20037;-62
2022/03/28 03:30:48;;;;;;;14.95;6.78;;;;;;;;;;5052497;28;20056;-61
2022/03/28 03:33:14;;;;;;;14.30;6.15;;;;;;;;;;5031728;28;20061;-61
2022/03/28 03:35:41;;;;;;;23.65;7.22;;;;;;;;;;5031559;28;20511;-61
2022/03/28 03:38:07;;;;;;;14.10;6.85;;;;;;;;;;5031927;28;20574;-61
2022/03/28 03:40:33;;;;;;;9.35;6.25;;;;;;;;;;5031700;28;20524;-61
2022/03/28 03:42:59;;;;;;;9.55;5.70;;;;;;;;;;5030093;28;20124;-61
2022/03/28 03:45:25;;;;;;;11.48;6.18;;;;;;;;;;5030316;28;20485;-61
2022/03/28 03:47:51;;;;;;;10.70;5.88;;;;;;;;;;5030413;28;20461;-61
2022/03/28 03:50:18;;;;;;;9.48;6.03;;;;;;;;;;5030609;28;20485;-61
2022/03/28 03:52:44;;;;;;;9.50;5.65;;;;;;;;;;5029589;28;20117;-61
2022/03/28 03:55:11;;;;;;;12.52;6.10;;;;;;;;;;5012125;28;20049;-61
2022/03/28 03:57:37;;;;;;;8.82;5.88;;;;;;;;;;5028151;28;20057;-60
2022/03/28 04:00:05;;;;;;;9.30;5.63;;;;;;;;;;5026530;28;20038;-61
2022/03/28 04:02:31;;;;;;;12.23;5.65;;;;;;;;;;5026045;28;20493;-61
2022/03/28 04:04:58;;;;;;;12.98;6.72;;;;;;;;;;5028284;28;20095;-61
2022/03/28 04:07:24;;;;;;;13.73;6.18;;;;;;;;;;5032428;28;20041;-61
2022/03/28 04:09:50;;;;;;;10.93;6.07;;;;;;;;;;5035285;28;20393;-61
2022/03/28 04:12:16;;;;;;;10.35;6.35;;;;;;;;;;5028792;28;20481;-61
2022/03/28 04:14:42;;;;;;;11.23;6.18;;;;;;;;;;5031745;28;20367;-61
2022/03/28 04:17:08;;;;;;;9.27;5.57;;;;;;;;;;5031494;28;20041;-62
2022/03/28 04:19:34;;;;;;;12.75;6.13;;;;;;;;;;5029564;28;20042;-61
2022/03/28 04:22:01;;;;;;;10.55;6.57;;;;;;;;;;5061224;28;20777;-61
2022/03/28 04:24:27;;;;;;;9.93;6.18;;;;;;;;;;5030709;28;20462;-61
2022/03/28 04:26:53;;;;;;;11.43;6.30;;;;;;;;;;5031866;28;20487;-61
2022/03/28 04:29:19;;;;;;;9.90;5.50;;;;;;;;;;5062435;28;20037;-61
2022/03/28 04:31:45;;;;;;;9.45;5.90;;;;;;;;;;5037063;28;20099;-61
2022/03/28 04:34:11;;;;;;;9.15;6.10;;;;;;;;;;5050349;28;20400;-61
2022/03/28 04:36:38;;;;;;;9.13;5.95;;;;;;;;;;5032731;28;20550;-61
2022/03/28 04:39:05;;;;;;;12.57;6.63;;;;;;;;;;5050298;28;20040;-61
2022/03/28 04:41:32;;;;;;;10.10;6.40;;;;;;;;;;5050551;28;20044;-61
2022/03/28 04:43:58;;;;;;;8.38;5.93;;;;;;;;;;5051159;28;20043;-61
2022/03/28 04:46:24;;;;;;;13.18;6.75;;;;;;;;;;5031872;28;20047;-61
2022/03/28 04:48:50;;;;;;;11.07;6.63;;;;;;;;;;5054146;28;20068;-61
2022/03/28 04:51:17;;;;;;;9.95;7.28;;;;;;;;;;5051170;28;20554;-62
2022/03/28 04:53:43;;;;;;;10.50;6.90;;;;;;;;;;5063817;28;20139;-61
2022/03/28 04:56:09;;;;;;;10.85;6.75;;;;;;;;;;5050337;28;20480;-61
2022/03/28 04:58:35;;;;;;;9.13;6.93;;;;;;;;;;5047902;28;20476;-61
2022/03/28 05:01:01;;;;;;;11.27;7.00;;;;;;;;;;5045325;28;20492;-61
2022/03/28 05:03:28;;;;;;;11.48;7.18;;;;;;;;;;5049557;28;20492;-62
2022/03/28 05:05:54;;;;;;;17.83;7.97;;;;;;;;;;5032679;28;20114;-61
2022/03/28 05:08:20;;;;;;;10.90;8.15;;;;;;;;;;5049304;28;20045;-61
2022/03/28 05:10:46;;;;;;;11.80;7.95;;;;;;;;;;5053802;28;20091;-61
2022/03/28 05:13:13;;;;;;;9.93;7.47;;;;;;;;;;5050573;28;20095;-61
2022/03/28 05:15:39;;;;;;;13.50;7.80;;;;;;;;;;5049314;28;20116;-61
2022/03/28 05:18:05;;;;;;;11.00;7.30;;;;;;;;;;5032063;28;20045;-61
2022/03/28 05:20:31;;;;;;;8.95;7.32;;;;;;;;;;5050008;28;20041;-61
2022/03/28 05:22:57;;;;;;;12.98;7.30;;;;;;;;;;5050476;28;20468;-62
2022/03/28 05:25:23;;;;;;;9.98;7.18;;;;;;;;;;5031345;28;20052;-61
2022/03/28 05:27:50;;;;;;;11.63;7.60;;;;;;;;;;5049507;28;20045;-61
2022/03/28 05:30:17;;;;;;;11.18;7.40;;;;;;;;;;5061202;28;20055;-61
2022/03/28 05:32:44;;;;;;;10.00;7.25;;;;;;;;;;5049553;28;20071;-62
2022/03/28 05:35:10;;;;;;;10.43;7.80;;;;;;;;;;5048941;28;20045;-62
2022/03/28 05:37:36;;;;;;;9.52;7.03;;;;;;;;;;5051616;28;20400;-62
2022/03/28 05:40:03;;;;;;;10.13;7.45;;;;;;;;;;5050902;28;20112;-62
2022/03/28 05:42:29;;;;;;;12.43;8.43;;;;;;;;;;5062066;28;20048;-62
2022/03/28 05:44:56;;;;;;;12.15;8.18;;;;;;;;;;5064327;28;20532;-61
2022/03/28 05:47:22;;;;;;;12.70;7.95;;;;;;;;;;5033839;28;20090;-61
2022/03/28 05:49:48;;;;;;;14.48;8.20;;;;;;;;;;5031719;28;20089;-62
2022/03/28 05:52:14;;;;;;;14.15;8.05;;;;;;;;;;5033062;28;20484;-61
2022/03/28 05:54:40;;;;;;;11.50;8.10;;;;;;;;;;5050764;28;20041;-62
2022/03/28 05:57:06;;;;;;;11.07;8.20;;;;;;;;;;5031669;28;20061;-62
2022/03/28 05:59:33;;;;;;;13.65;8.52;;;;;;;;;;5050502;28;20029;-61
2022/03/28 06:01:59;;;;;;;14.00;8.27;;;;;;;;;;5049250;28;20055;-62
2022/03/28 06:04:25;;;;;;;15.27;8.10;;;;;;;;;;5059953;28;20045;-61
2022/03/28 06:06:51;;;;;;;12.32;9.02;;;;;;;;;;5045934;28;20041;-62
2022/03/28 06:09:18;;;;;;;14.05;8.45;;;;;;;;;;5045009;28;20041;-62
2022/03/28 06:11:44;;;;;;;12.52;7.88;;;;;;;;;;5050006;28;20098;-62
2022/03/28 06:14:10;;;;;;;11.38;7.45;;;;;;;;;;5050943;28;20040;-62
2022/03/28 06:16:36;;;;;;;11.30;7.15;;;;;;;;;;5050359;28;20485;-62
2022/03/28 06:19:03;;;;;;;11.45;6.50;;;;;;;;;;5064428;28;20122;-62
2022/03/28 06:21:30;;;;;;;11.10;7.57;;;;;;;;;;5050532;28;20377;-62
2022/03/28 06:23:57;;;;;;;9.90;6.82;;;;;;;;;;5065158;28;20431;-62
2022/03/28 06:26:24;;;;;;;11.02;6.88;;;;;;;;;;5050322;28;20044;-62
2022/03/28 06:28:50;;;;;;;8.30;4.93;;;;;;;;;;5049974;28;20624;-62
2022/03/28 06:31:16;;;;;;;6.80;4.40;;;;;;;;;;5049602;28;20799;-63
2022/03/28 06:33:42;;;;;;;6.63;4.03;;;;;;;;;;5050223;28;20107;-70
2022/03/28 06:36:09;;;;;;;6.68;3.50;;;;;;;;;;5049841;28;20037;-63
2022/03/28 06:38:35;;;;;;;7.13;3.30;;;;;;;;;;5053549;28;20036;-63
2022/03/28 06:41:02;;;;;;;7.05;4.38;;;;;;;;;;5066192;28;20048;-62
2022/03/28 06:43:28;;;;;;;7.72;4.13;;;;;;;;;;5053779;28;20088;-62
2022/03/28 06:45:54;;;;;;;6.82;3.83;;;;;;;;;;5053097;28;20041;-63
2022/03/28 06:48:20;;;;;;;6.55;3.50;;;;;;;;;;5054531;28;20504;-63
2022/03/28 06:50:46;;;;;;;6.25;3.67;;;;;;;;;;5054879;28;20420;-62
2022/03/28 06:53:13;;;;;;;7.68;3.90;;;;;;;;;;5068284;28;20556;-62
2022/03/28 06:55:40;;;;;;;7.78;4.22;;;;;;;;;;5053923;28;20372;-62
2022/03/28 06:58:06;;;;;;;8.07;4.60;;;;;;;;;;5035165;28;20068;-62
2022/03/28 07:00:34;;;;;;;8.43;4.28;;;;;;;;;;5049354;28;20037;-62
2022/03/28 07:03:00;;;;;;;7.32;4.40;;;;;;;;;;5044350;28;20056;-62
2022/03/28 07:05:28;;;;;;;9.00;4.88;;;;;;;;;;5042155;28;20064;-62
2022/03/28 07:07:56;;;;;;;9.68;4.93;;;;;;;;;;5042656;28;20064;-62
2022/03/28 07:10:22;;;;;;;13.38;7.43;;;;;;;;;;5044366;28;20101;-63
2022/03/28 07:12:51;;;;;;;12.98;8.10;;;;;;;;;;5030218;28;20045;-63
2022/03/28 07:15:17;;;;;;;11.63;6.63;;;;;;;;;;5051068;28;20049;-63
2022/03/28 07:17:46;;;;;;;10.07;7.10;;;;;;;;;;5054654;28;20075;-62
2022/03/28 07:20:12;;;;;;;11.10;7.10;;;;;;;;;;5051348;28;20128;-63
2022/03/28 07:22:39;;;;;;;9.75;6.60;;;;;;;;;;5069528;28;20045;-63
2022/03/28 07:25:05;;;;;;;11.50;6.72;;;;;;;;;;5052671;28;20768;-62
2022/03/28 07:27:36;;;;;;;11.50;6.35;;;;;;;;;;5037451;28;20834;-62
2022/03/28 07:30:02;;;;;;;9.40;5.38;;;;;;;;;;5051874;28;20041;-62
2022/03/28 07:32:28;;;;;;;9.13;5.15;;;;;;;;;;5051542;28;20056;-62
2022/03/28 07:34:54;;;;;;;10.40;6.78;;;;;;;;;;5051754;28;20052;-62
2022/03/28 07:37:22;;;;;;;13.77;6.78;;;;;;;;;;5049775;28;20049;-62
2022/03/28 07:39:48;;;;;;;13.05;6.55;;;;;;;;;;5050907;28;20059;-62
2022/03/28 07:42:14;;;;;;;10.68;7.00;;;;;;;;;;5052089;28;20340;-61
2022/03/28 07:44:42;;;;;;;12.55;7.25;;;;;;;;;;5052287;28;20049;-62
2022/03/28 07:47:09;;;;;;;11.90;7.07;;;;;;;;;;5036937;28;20441;-62
2022/03/28 07:49:36;;;;;;;12.98;7.78;;;;;;;;;;5034333;28;20069;-62
2022/03/28 07:52:03;;;;;;;13.07;7.30;;;;;;;;;;5048015;28;20045;-62
2022/03/28 07:54:29;;;;;;;12.48;7.78;;;;;;;;;;5034963;28;20076;-63
2022/03/28 07:56:55;;;;;;;14.10;8.68;;;;;;;;;;5067961;28;20045;-63
2022/03/28 07:59:23;;;;;;;16.40;9.40;;;;;;;;;;5052981;28;20409;-62
2022/03/28 08:01:51;;;;;;;15.18;9.65;;;;;;;;;;5054037;28;20476;-62
2022/03/28 08:04:17;;;;;;;15.45;11.02;;;;;;;;;;5052999;28;20040;-62
2022/03/28 08:06:44;;;;;;;15.77;11.25;;;;;;;;;;5053219;28;20053;-62
2022/03/28 08:09:10;;;;;;;15.05;10.60;;;;;;;;;;5053206;28;20056;-63
2022/03/28 08:11:37;;;;;;;15.57;10.43;;;;;;;;;;5067938;28;20165;-62
2022/03/28 08:14:04;;;;;;;17.20;11.88;;;;;;;;;;5053200;28;20409;-62
2022/03/28 08:16:31;;;;;;;19.40;10.85;;;;;;;;;;5052850;28;20503;-62
2022/03/28 08:18:57;;;;;;;14.95;11.77;;;;;;;;;;5035488;28;20115;-62
2022/03/28 08:21:23;;;;;;;17.27;10.52;;;;;;;;;;5052915;28;20489;-65
2022/03/28 08:23:49;;;;;;;15.55;10.70;;;;;;;;;;5064061;28;20056;-62
2022/03/28 08:26:16;;;;;;;14.68;11.55;;;;;;;;;;5031450;28;20082;-62
2022/03/28 08:28:43;;;;;;;14.18;10.88;;;;;;;;;;5059162;28;20138;-62
2022/03/28 08:31:09;;;;;;;15.27;11.15;;;;;;;;;;5048204;28;20101;-62
2022/03/28 08:33:36;;;;;;;13.13;9.85;;;;;;;;;;5060432;28;20191;-62
2022/03/28 08:36:02;;;;;;;14.23;10.00;;;;;;;;;;5048619;28;20037;-62
2022/03/28 08:38:28;;;;;;;13.25;10.57;;;;;;;;;;5048807;28;20709;-61
2022/03/28 08:40:55;;;;;;;17.17;10.40;;;;;;;;;;5027885;28;20098;-62
2022/03/28 08:43:23;;;;;;;14.90;10.75;;;;;;;;;;5031239;28;20120;-62
2022/03/28 08:45:50;;;;;;;15.32;11.30;;;;;;;;;;5048416;28;20044;-62
2022/03/28 08:48:16;;;;;;;19.60;11.32;;;;;;;;;;5049037;28;20124;-62
2022/03/28 08:50:44;;;;;;;15.35;10.68;;;;;;;;;;5031025;28;20125;-62
2022/03/28 08:53:11;;;;;;;14.27;10.35;;;;;;;;;;5048850;28;20045;-62
2022/03/28 08:55:39;;;;;;;13.88;9.70;;;;;;;;;;5062920;28;20048;-62
2022/03/28 08:58:06;;;;;;;13.77;10.30;;;;;;;;;;5030251;28;20479;-62
2022/03/28 09:00:33;;;;;;;14.88;10.70;;;;;;;;;;5029763;28;20037;-62
2022/03/28 09:02:59;;;;;;;12.23;9.68;;;;;;;;;;5049198;28;20411;-61
2022/03/28 09:05:30;;;;;;;15.57;10.93;;;;;;;;;;5030330;28;20047;-62
2022/03/28 09:07:58;;;;;;;14.52;10.60;;;;;;;;;;5045860;28;20481;-62
2022/03/28 09:10:25;;;;;;;18.13;11.35;;;;;;;;;;5045305;28;20459;-62
2022/03/28 09:12:57;;;;;;;16.85;10.95;;;;;;;;;;5045501;28;20125;-62
2022/03/28 09:15:23;;;;;;;17.85;10.73;;;;;;;;;;5047364;28;20446;-62
2022/03/28 09:17:56;;;;;;;15.90;10.98;;;;;;;;;;5060785;28;20136;-62
2022/03/28 09:20:23;;;;;;;13.70;10.60;;;;;;;;;;5048188;28;20397;-62
2022/03/28 09:22:50;;;;;;;14.00;10.50;;;;;;;;;;5049221;28;20283;-62
2022/03/28 09:25:18;;;;;;;13.25;8.90;;;;;;;;;;5049039;28;20121;-62
2022/03/28 09:27:45;;;;;;;17.48;10.40;;;;;;;;;;5062246;28;20057;-61
2022/03/28 09:30:13;;;;;;;11.75;10.48;;;;;;;;;;5048386;28;20044;-61
2022/03/28 09:32:39;;;;;;;15.52;10.80;;;;;;;;;;5047380;28;20120;-62
2022/03/28 09:35:06;;;;;;;14.48;10.68;;;;;;;;;;5048305;28;20131;-62
2022/03/28 09:37:51;;;;;;;16.35;11.10;;;;;;;;;;5029902;28;20057;-62
2022/03/28 09:40:32;;;;;;;13.82;10.77;;;;;;;;;;5029643;28;20041;-61
2022/03/28 09:42:59;;;;;;;14.25;10.38;;;;;;;;;;5047407;28;20194;-62
2022/03/28 09:45:27;;;;;;;13.57;10.32;;;;;;;;;;5048402;28;20052;-62
2022/03/28 09:48:01;;;;;;;14.10;10.70;;;;;;;;;;5047991;28;20067;-62
2022/03/28 09:50:28;;;;;;;14.50;10.27;;;;;;;;;;5048402;28;20044;-61
2022/03/28 09:52:54;;;;;;;13.45;10.30;;;;;;;;;;5047662;28;20409;-62
2022/03/28 09:55:20;;;;;;;12.75;10.07;;;;;;;;;;5046771;28;20388;-62
2022/03/28 09:57:47;;;;;;;12.95;9.60;;;;;;;;;;5060572;28;20311;-62
2022/03/28 10:00:14;;;;;;;13.48;10.63;;;;;;;;;;5047880;28;20128;-63
2022/03/28 10:02:40;;;;;;;12.85;9.93;;;;;;;;;;5061543;28;20043;-62
2022/03/28 10:05:07;;;;;;;14.32;9.57;;;;;;;;;;5061109;28;20044;-63
2022/03/28 10:07:33;;;;;;;19.58;10.50;;;;;;;;;;5026634;28;20500;-63
2022/03/28 10:10:00;;;;;;;15.38;9.85;;;;;;;;;;5027901;28;20040;-63
2022/03/28 10:12:26;;;;;;;12.35;9.45;;;;;;;;;;5049884;28;20045;-63
2022/03/28 10:14:57;;;;;;;12.43;9.35;;;;;;;;;;5048729;28;20086;-63
2022/03/28 10:17:24;;;;;;;19.65;9.70;;;;;;;;;;5051754;28;20049;-62
2022/03/28 10:19:51;;;;;;;15.57;9.65;;;;;;;;;;5053218;28;20049;-62
2022/03/28 10:22:20;;;;;;;15.50;9.98;;;;;;;;;;5034008;28;20051;-62
2022/03/28 10:24:47;;;;;;;16.20;9.57;;;;;;;;;;5051031;28;20643;-62
2022/03/28 10:27:14;;;;;;;12.57;9.75;;;;;;;;;;5051736;28;20045;-62
2022/03/28 10:29:41;;;;;;;14.77;10.13;;;;;;;;;;5066420;28;20472;-63
2022/03/28 10:32:09;;;;;;;12.63;9.35;;;;;;;;;;5051059;28;20086;-63
2022/03/28 10:34:40;;;;;;;15.18;10.35;;;;;;;;;;5064456;28;20399;-62
2022/03/28 10:37:24;;;;;;;13.35;9.80;;;;;;;;;;5032326;28;20313;-63
2022/03/28 10:39:50;;;;;;;12.82;10.40;;;;;;;;;;5051690;28;20072;-62
2022/03/28 10:42:18;;;;;;;13.95;9.57;;;;;;;;;;5051514;28;20475;-63
2022/03/28 10:44:46;;;;;;;14.30;9.60;;;;;;;;;;5049796;28;20120;-62
2022/03/28 10:47:14;;;;;;;12.18;8.95;;;;;;;;;;5051399;28;20037;-63
2022/03/28 10:49:42;;;;;;;16.45;9.43;;;;;;;;;;5051166;28;20041;-63
2022/03/28 10:52:11;;;;;;;11.25;9.07;;;;;;;;;;5050416;28;20086;-63
2022/03/28 10:54:38;;;;;;;11.07;8.95;;;;;;;;;;5062946;28;20075;-63
2022/03/28 10:57:04;;;;;;;13.88;10.40;;;;;;;;;;5049996;28;20040;-62
2022/03/28 10:59:31;;;;;;;15.05;9.68;;;;;;;;;;5060312;28;20488;-62
2022/03/28 11:01:57;;;;;;;15.90;10.60;;;;;;;;;;5050443;28;20041;-62
2022/03/28 11:04:24;;;;;;;14.18;9.65;;;;;;;;;;5030430;28;20128;-62
2022/03/28 11:06:53;;;;;;;11.93;9.43;;;;;;;;;;5052361;28;20389;-62
2022/03/28 11:09:34;;;;;;;11.57;9.95;;;;;;;;;;5032219;28;20045;-62
2022/03/28 11:12:01;;;;;;;13.85;10.90;;;;;;;;;;5069036;28;20437;-62
2022/03/28 11:14:40;;;;;;;14.02;9.82;;;;;;;;;;5049183;28;20377;-62
2022/03/28 11:17:15;;;;;;;17.00;9.93;;;;;;;;;;5053708;28;20044;-62
2022/03/28 11:19:52;;;;;;;12.57;10.32;;;;;;;;;;5052991;28;20044;-62
2022/03/28 11:22:18;;;;;;;11.50;9.35;;;;;;;;;;5051080;28;20037;-62
2022/03/28 11:24:45;;;;;;;15.50;10.27;;;;;;;;;;5053361;28;20049;-62
2022/03/28 11:27:13;;;;;;;14.60;10.48;;;;;;;;;;5051913;28;20064;-62
2022/03/28 11:29:39;;;;;;;16.42;10.38;;;;;;;;;;5053351;28;20041;-63
2022/03/28 11:32:08;;;;;;;16.27;10.02;;;;;;;;;;5053558;28;20056;-63
2022/03/28 11:34:35;;;;;;;13.38;9.73;;;;;;;;;;5052843;28;20052;-63
2022/03/28 11:37:02;;;;;;;11.95;9.95;;;;;;;;;;5053250;28;20151;-63
2022/03/28 11:39:29;;;;;;;19.20;11.18;;;;;;;;;;5053320;28;20457;-63
2022/03/28 11:41:55;;;;;;;14.32;10.40;;;;;;;;;;5050653;28;20130;-63
2022/03/28 11:44:21;;;;;;;12.85;10.75;;;;;;;;;;5052717;28;20056;-63
2022/03/28 11:47:22;;;;;;;14.18;10.88;;;;;;;;;;5053325;28;20037;-63
2022/03/28 11:49:53;;;;;;;14.43;10.13;;;;;;;;;;5019556;28;20087;-62
2022/03/28 11:52:21;;;;;;;12.07;9.38;;;;;;;;;;5067529;28;20400;-62
2022/03/28 11:54:47;;;;;;;15.20;10.77;;;;;;;;;;5034107;28;20056;-63
2022/03/28 12:00:11;;;;;;;13.52;10.45;;;;;;;;;;5069100;28;20045;-63
2022/03/28 12:02:46;;;;;;;13.52;10.35;;;;;;;;;;5052751;28;20431;-63
2022/03/28 12:05:12;;;;;;;11.82;10.07;;;;;;;;;;5053634;28;20116;-63
2022/03/28 12:07:38;;;;;;;11.43;9.52;;;;;;;;;;5035848;28;20045;-63
2022/03/28 12:10:06;;;;;;;16.15;10.98;;;;;;;;;;5053128;28;20045;-63
2022/03/28 12:12:32;;;;;;;13.65;9.88;;;;;;;;;;5035193;28;20080;-63
2022/03/28 12:14:58;;;;;;;15.07;10.68;;;;;;;;;;5035849;28;20040;-63
2022/03/28 12:17:27;;;;;;;14.60;10.75;;;;;;;;;;5034802;28;20049;-63
2022/03/28 12:20:01;;;;;;;15.00;10.13;;;;;;;;;;5052727;28;20041;-63
2022/03/28 12:22:27;;;;;;;;;;;;;;;;;;5065383;28;20084;-63
2022/03/28 12:24:53;;;;;;;13.52;10.63;;;;;;;;;;5033424;28;19975;-63
2022/03/28 12:27:20;;;;;;;14.18;9.93;;;;;;;;;;5052329;28;20045;-63
2022/03/28 12:29:46;;;;;;;13.25;9.75;;;;;;;;;;5051512;28;20411;-63
2022/03/28 12:32:16;;;;;;;14.65;10.32;;;;;;;;;;5030623;28;20061;-63
2022/03/28 12:34:43;;;;;;;12.25;9.20;;;;;;;;;;5063401;28;20095;-63
2022/03/28 12:37:14;;;;;;;13.07;9.90;;;;;;;;;;5031780;28;20038;-63
2022/03/28 12:39:47;;;;;;;16.38;10.13;;;;;;;;;;5030944;28;20448;-63
2022/03/28 12:42:25;;;;;;;13.00;9.73;;;;;;;;;;5031811;28;20075;-62
2022/03/28 12:44:54;;;;;;;14.57;9.63;;;;;;;;;;5029627;28;20100;-62
2022/03/28 12:47:20;;;;;;;11.93;9.38;;;;;;;;;;5030235;28;20072;-63
2022/03/28 12:49:47;;;;;;;15.63;11.15;;;;;;;;;;5032090;28;20053;-63
2022/03/28 12:52:19;;;;;;;11.95;10.27;;;;;;;;;;5031071;28;20041;-63
2022/03/28 12:54:46;;;;;;;14.57;10.57;;;;;;;;;;5030564;28;20145;-63
2022/03/28 12:57:13;;;;;;;19.23;11.18;;;;;;;;;;5030185;28;20516;-63
2022/03/28 12:59:40;;;;;;;13.82;10.75;;;;;;;;;;5031142;28;20045;-63
2022/03/28 13:02:08;;;;;;;12.82;9.77;;;;;;;;;;5030382;28;20107;-63
2022/03/28 13:04:43;;;;;;;12.95;10.38;;;;;;;;;;5030041;28;20038;-63
2022/03/28 13:07:09;;;;;;;13.45;9.75;;;;;;;;;;5030861;28;20045;-62
2022/03/28 13:09:35;;;;;;;10.50;9.40;;;;;;;;;;5031743;28;20037;-63
2022/03/28 13:12:06;;;;;;;13.73;9.50;;;;;;;;;;5029246;28;20045;-63
2022/03/28 13:14:34;;;;;;;13.93;11.00;;;;;;;;;;5031301;28;20033;-62
2022/03/28 13:17:08;;;;;;;12.55;10.80;;;;;;;;;;5030208;28;20048;-63
2022/03/28 13:19:36;;;;;;;13.73;9.57;;;;;;;;;;5029565;28;20046;-62
2022/03/28 13:22:04;;;;;;;12.35;11.05;;;;;;;;;;5031286;28;20138;-62
2022/03/28 13:24:31;;;;;;;14.00;11.15;;;;;;;;;;5029735;28;20508;-62
2022/03/28 13:29:51;;;;;;;16.52;12.43;;;;;;;;;;5031200;28;20052;-63
2022/03/28 13:32:18;;;;;;;14.15;12.07;;;;;;;;;;5042614;28;20098;-63
2022/03/28 13:34:44;;;;;;;16.90;12.93;;;;;;;;;;5049965;28;20060;-63
2022/03/28 13:37:10;;;;;;;14.65;12.35;;;;;;;;;;5066403;28;20441;-62
2022/03/28 13:39:37;;;;;;;17.23;13.75;;;;;;;;;;5050181;28;20045;-63
2022/03/28 13:42:04;;;;;;;15.35;12.23;;;;;;;;;;5045693;28;20048;-63
2022/03/28 13:44:30;;;;;;;17.38;13.23;;;;;;;;;;5048418;28;20045;-63
2022/03/28 13:46:57;;;;;;;20.55;14.38;;;;;;;;;;5029788;28;20085;-63
2022/03/28 13:49:23;;;;;;;17.83;13.93;;;;;;;;;;5030280;28;20540;-63
2022/03/28 13:51:49;;;;;;;20.17;14.77;;;;;;;;;;5027771;28;20551;-63
2022/03/28 13:54:16;;;;;;;21.15;15.38;;;;;;;;;;5054438;28;20037;-62
2022/03/28 13:56:42;;;;;;;19.55;15.50;;;;;;;;;;5038957;28;20040;-63
2022/03/28 13:59:10;;;;;;;20.95;15.45;;;;;;;;;;5027452;28;20079;-63
2022/03/28 14:01:38;;;;;;;19.52;15.00;;;;;;;;;;5049037;28;20096;-63
2022/03/28 14:04:08;;;;;;;21.83;16.67;;;;;;;;;;5039143;28;20045;-63
2022/03/28 14:06:34;;;;;;;23.05;14.73;;;;;;;;;;5023319;28;20056;-63
2022/03/28 14:09:01;;;;;;;20.13;16.05;;;;;;;;;;5041766;28;20506;-62
2022/03/28 14:11:27;;;;;;;24.42;16.38;;;;;;;;;;5031877;28;20126;-62
2022/03/28 14:13:54;;;;;;;23.15;16.33;;;;;;;;;;5050666;28;20047;-63
2022/03/28 14:16:20;;;;;;;20.13;17.20;;;;;;;;;;5048252;28;20049;-62
2022/03/28 14:18:48;;;;;;;19.38;16.20;;;;;;;;;;5049366;28;20128;-63
2022/03/28 14:21:15;;;;;;;23.52;16.45;;;;;;;;;;5049386;28;20044;-63
2022/03/28 14:23:44;;;;;;;24.58;16.85;;;;;;;;;;5046200;28;20055;-63
2022/03/28 14:26:11;;;;;;;21.08;16.75;;;;;;;;;;5045345;28;20420;-63
2022/03/28 14:28:37;;;;;;;25.70;18.60;;;;;;;;;;5045515;28;20527;-63
2022/03/28 14:31:03;;;;;;;23.35;17.63;;;;;;;;;;5042992;28;20060;-63
2022/03/28 14:33:30;;;;;;;22.42;16.85;;;;;;;;;;5050536;28;20054;-63